Time;durP1;ratioP1;P1;durP2;ratioP2;P2;SDS_P1;SDS_P2;PMS_P1;PMS_P2;Temp;Humidity;BMP_temperature;BMP_pressure;BME280_temperature;BME280_humidity;BME280_pressure;Samples;Min_cycle;Max_cycle;Signal;HPM_P1;HPM_P2
2020/12/01 00:02:20;;;;;;;12.25;7.25;;;3.90;71.60;;;;;;5021937;28;20021;-70
2020/12/01 00:04:46;;;;;;;16.00;7.65;;;3.80;71.50;;;;;;5031223;28;20049;-70
2020/12/01 00:07:12;;;;;;;13.48;7.05;;;3.80;71.70;;;;;;5016023;28;20450;-70
2020/12/01 00:09:37;;;;;;;12.90;7.97;;;3.80;71.70;;;;;;5015808;28;20116;-71
2020/12/01 00:12:04;;;;;;;11.90;6.78;;;3.80;71.80;;;;;;5016400;28;20032;-68
2020/12/01 00:14:30;;;;;;;13.60;7.43;;;3.90;71.90;;;;;;5015557;28;20477;-70
2020/12/01 00:16:55;;;;;;;13.10;7.25;;;3.90;71.70;;;;;;5015927;28;20053;-69
2020/12/01 00:19:21;;;;;;;13.13;7.95;;;3.90;71.70;;;;;;5016135;28;20055;-70
2020/12/01 00:21:47;;;;;;;10.63;6.93;;;3.90;71.70;;;;;;5015733;28;20034;-69
2020/12/01 00:24:13;;;;;;;11.43;7.47;;;3.90;71.70;;;;;;5015678;28;20076;-69
2020/12/01 00:26:39;;;;;;;12.15;6.82;;;3.90;71.60;;;;;;5015291;28;20026;-69
2020/12/01 00:29:06;;;;;;;12.32;7.40;;;3.80;71.70;;;;;;5015258;28;20192;-69
2020/12/01 00:31:42;;;;;;;14.02;7.30;;;3.90;71.80;;;;;;5013957;28;20025;-70
2020/12/01 00:34:12;;;;;;;11.35;7.00;;;3.80;71.70;;;;;;5015111;28;20125;-70
2020/12/01 00:36:40;;;;;;;12.05;7.20;;;3.90;71.70;;;;;;5015407;28;20034;-70
2020/12/01 00:39:06;;;;;;;11.88;6.80;;;3.80;71.70;;;;;;5015472;28;20038;-70
2020/12/01 00:41:32;;;;;;;13.13;7.60;;;3.80;71.90;;;;;;5014922;28;20034;-70
2020/12/01 00:43:58;;;;;;;12.85;7.32;;;3.80;72.00;;;;;;5030529;28;20520;-70
2020/12/01 00:46:24;;;;;;;10.55;7.13;;;3.90;72.10;;;;;;5014908;28;20054;-69
2020/12/01 00:48:49;;;;;;;12.05;7.35;;;3.90;72.00;;;;;;5014944;28;20033;-71
2020/12/01 00:51:15;;;;;;;13.57;7.93;;;3.90;71.80;;;;;;5015118;28;20076;-70
2020/12/01 00:53:41;;;;;;;10.73;7.25;;;3.90;71.80;;;;;;5014656;28;20028;-70
2020/12/01 00:56:08;;;;;;;12.95;7.65;;;3.90;71.80;;;;;;5015133;28;20014;-70
2020/12/01 00:58:34;;;;;;;12.07;6.82;;;3.90;71.80;;;;;;5014902;28;20083;-69
2020/12/01 01:01:00;;;;;;;14.35;8.02;;;3.90;71.80;;;;;;5014972;28;20401;-69
2020/12/01 01:03:26;;;;;;;14.90;7.80;;;3.90;71.70;;;;;;5014518;28;20025;-68
2020/12/01 01:05:51;;;;;;;13.00;7.40;;;3.80;71.70;;;;;;5015008;28;20065;-69
2020/12/01 01:08:17;;;;;;;12.70;7.18;;;3.80;71.90;;;;;;5014412;28;20073;-70
2020/12/01 01:10:42;;;;;;;13.55;7.53;;;3.90;72.00;;;;;;5014920;28;20025;-70
2020/12/01 01:13:08;;;;;;;11.90;7.13;;;3.80;72.00;;;;;;5013649;28;20105;-70
2020/12/01 01:15:35;;;;;;;13.57;7.32;;;3.90;72.20;;;;;;5014717;28;20030;-70
2020/12/01 01:18:02;;;;;;;14.05;7.68;;;3.90;72.60;;;;;;5014680;28;20366;-71
2020/12/01 01:20:28;;;;;;;12.10;7.55;;;3.90;71.90;;;;;;5014854;28;20030;-69
2020/12/01 01:22:54;;;;;;;13.25;7.45;;;3.90;72.10;;;;;;5014517;28;20072;-69
2020/12/01 01:25:21;;;;;;;11.68;7.68;;;3.90;72.00;;;;;;5014186;28;20105;-70
2020/12/01 01:27:47;;;;;;;12.65;7.00;;;4.00;72.20;;;;;;5014425;28;20454;-70
2020/12/01 01:30:19;;;;;;;11.35;6.85;;;4.00;72.10;;;;;;5012535;28;20053;-71
2020/12/01 01:32:45;;;;;;;11.93;7.40;;;4.00;71.90;;;;;;5014609;28;20029;-70
2020/12/01 01:35:11;;;;;;;11.88;6.95;;;4.00;71.80;;;;;;5014059;28;20021;-70
2020/12/01 01:37:37;;;;;;;11.45;6.70;;;4.00;71.90;;;;;;5014086;28;20022;-70
2020/12/01 01:40:06;;;;;;;11.80;6.93;;;4.00;71.90;;;;;;5014381;28;20030;-70
2020/12/01 01:42:32;;;;;;;12.10;7.22;;;3.90;71.60;;;;;;5014237;28;20022;-70
2020/12/01 01:44:57;;;;;;;10.20;6.38;;;3.90;71.50;;;;;;5014219;28;20026;-69
2020/12/01 01:47:27;;;;;;;13.38;7.47;;;3.90;71.70;;;;;;5014160;28;20017;-70
2020/12/01 01:50:00;;;;;;;11.88;7.03;;;3.90;71.70;;;;;;5013949;28;20042;-70
2020/12/01 01:52:52;;;;;;;13.27;6.90;;;3.90;71.70;;;;;;5014032;28;20109;-70
2020/12/01 01:55:27;;;;;;;10.82;6.60;;;3.80;71.70;;;;;;5013734;28;20077;-70
2020/12/01 01:58:01;;;;;;;11.63;7.20;;;3.80;71.80;;;;;;5028665;28;20028;-71
2020/12/01 02:00:56;;;;;;;11.50;6.60;;;3.80;71.90;;;;;;5013891;28;20029;-70
2020/12/01 02:03:31;;;;;;;10.80;6.55;;;3.80;72.00;;;;;;5013839;28;20076;-71
2020/12/01 02:05:58;;;;;;;10.38;6.72;;;3.80;71.90;;;;;;5013952;28;20077;-70
2020/12/01 02:08:25;;;;;;;9.90;6.57;;;3.80;72.10;;;;;;5013545;28;20446;-69
2020/12/01 02:10:53;;;;;;;12.20;6.60;;;3.90;72.10;;;;;;5013891;28;20161;-70
2020/12/01 02:13:27;;;;;;;10.35;6.40;;;3.90;72.20;;;;;;5013722;28;20399;-69
2020/12/01 02:15:54;;;;;;;10.35;6.30;;;3.90;72.10;;;;;;5013434;28;20026;-70
2020/12/01 02:18:37;;;;;;;9.90;6.28;;;3.90;72.20;;;;;;5028568;28;20030;-70
2020/12/01 02:21:29;;;;;;;11.35;6.63;;;3.90;72.00;;;;;;5013621;28;20036;-70
2020/12/01 02:23:57;;;;;;;11.45;6.50;;;3.90;72.00;;;;;;5012628;28;20343;-70
2020/12/01 02:26:23;;;;;;;10.50;6.72;;;3.90;71.90;;;;;;5012992;28;20014;-69
2020/12/01 02:28:49;;;;;;;11.70;6.82;;;3.90;71.90;;;;;;5013099;28;20477;-69
2020/12/01 02:31:15;;;;;;;11.00;6.25;;;3.90;72.10;;;;;;5013773;28;20045;-70
2020/12/01 02:33:41;;;;;;;10.98;6.68;;;3.90;72.20;;;;;;5013502;28;20072;-70
2020/12/01 02:36:06;;;;;;;10.30;6.55;;;4.00;72.10;;;;;;5014266;28;20113;-69
2020/12/01 02:38:32;;;;;;;9.70;6.10;;;4.00;72.70;;;;;;5016939;28;20026;-69
2020/12/01 02:40:58;;;;;;;10.45;6.25;;;4.00;72.00;;;;;;5033212;28;20213;-71
2020/12/01 02:43:23;;;;;;;10.02;6.60;;;4.00;72.00;;;;;;5032801;28;20052;-70
2020/12/01 02:45:49;;;;;;;10.15;6.28;;;4.00;72.10;;;;;;5033572;28;20034;-70
2020/12/01 02:48:15;;;;;;;10.40;6.70;;;4.00;72.10;;;;;;5033133;28;20021;-69
2020/12/01 02:50:40;;;;;;;8.85;6.18;;;4.00;71.90;;;;;;5032909;28;20030;-70
2020/12/01 02:53:06;;;;;;;11.45;6.15;;;4.00;71.80;;;;;;5033113;28;20053;-69
2020/12/01 02:55:32;;;;;;;9.35;6.00;;;4.00;71.90;;;;;;5015313;28;20033;-69
2020/12/01 02:57:57;;;;;;;9.27;6.10;;;4.10;72.10;;;;;;5013599;28;20509;-70
2020/12/01 03:00:23;;;;;;;8.15;5.90;;;4.10;72.00;;;;;;5012909;28;20034;-69
2020/12/01 03:02:49;;;;;;;9.15;6.20;;;4.10;72.00;;;;;;5013487;28;20026;-69
2020/12/01 03:05:14;;;;;;;10.85;6.40;;;4.10;72.00;;;;;;5012919;28;20072;-70
2020/12/01 03:07:40;;;;;;;10.00;5.97;;;4.10;71.90;;;;;;5013105;28;20029;-71
2020/12/01 03:10:06;;;;;;;11.45;5.68;;;4.20;71.80;;;;;;5013065;28;20052;-69
2020/12/01 03:12:34;;;;;;;8.77;5.70;;;4.20;71.70;;;;;;5012823;28;20045;-71
2020/12/01 03:15:01;;;;;;;11.05;6.35;;;4.20;71.70;;;;;;5013337;28;20030;-70
2020/12/01 03:17:26;;;;;;;11.15;6.03;;;4.10;71.40;;;;;;5012990;28;20024;-69
2020/12/01 03:19:52;;;;;;;10.68;6.07;;;4.10;71.50;;;;;;5012998;28;20096;-70
2020/12/01 03:22:18;;;;;;;8.88;5.50;;;4.10;71.60;;;;;;5013049;28;20026;-70
2020/12/01 03:24:43;;;;;;;10.02;6.03;;;4.10;71.60;;;;;;5012957;28;20033;-70
2020/12/01 03:27:09;;;;;;;8.68;5.53;;;4.10;71.70;;;;;;5012849;28;20087;-69
2020/12/01 03:29:35;;;;;;;8.38;5.30;;;4.10;71.70;;;;;;5012815;28;20481;-70
2020/12/01 03:32:01;;;;;;;9.85;6.13;;;4.10;71.70;;;;;;5013097;28;20101;-70
2020/12/01 03:34:26;;;;;;;9.63;5.85;;;4.20;71.70;;;;;;5012558;28;20411;-70
2020/12/01 03:36:52;;;;;;;9.23;5.70;;;4.20;71.70;;;;;;5013591;28;20523;-70
2020/12/01 03:39:17;;;;;;;8.07;5.45;;;4.20;71.40;;;;;;5016585;28;20034;-69
2020/12/01 03:41:43;;;;;;;8.90;5.28;;;4.10;71.20;;;;;;5016564;28;20025;-69
2020/12/01 03:44:09;;;;;;;10.85;6.00;;;4.10;71.20;;;;;;5016250;28;20370;-70
2020/12/01 03:46:35;;;;;;;9.45;5.63;;;4.10;71.40;;;;;;5016356;28;20029;-69
2020/12/01 03:49:01;;;;;;;10.38;5.80;;;4.10;71.60;;;;;;5016603;28;20028;-70
2020/12/01 03:51:27;;;;;;;7.78;5.18;;;4.10;71.60;;;;;;5015932;28;20022;-70
2020/12/01 03:53:53;;;;;;;10.55;5.93;;;4.20;71.60;;;;;;5016457;28;20025;-70
2020/12/01 03:56:20;;;;;;;9.77;6.50;;;4.20;71.60;;;;;;5016110;28;20022;-69
2020/12/01 03:58:45;;;;;;;9.57;5.80;;;4.20;71.50;;;;;;5016078;28;20105;-70
2020/12/01 04:01:11;;;;;;;9.27;5.72;;;4.20;71.50;;;;;;5016064;28;20100;-70
2020/12/01 04:03:37;;;;;;;8.75;5.45;;;4.20;71.40;;;;;;5015984;28;20122;-70
2020/12/01 04:06:04;;;;;;;8.77;5.55;;;4.20;71.40;;;;;;5015728;28;20476;-70
2020/12/01 04:08:29;;;;;;;9.05;5.65;;;4.20;71.30;;;;;;5015875;28;20041;-70
2020/12/01 04:10:55;;;;;;;9.65;5.63;;;4.20;71.30;;;;;;5015887;28;20030;-70
2020/12/01 04:13:21;;;;;;;10.65;5.25;;;4.20;71.40;;;;;;5015889;28;20342;-70
2020/12/01 04:15:47;;;;;;;8.52;5.45;;;4.20;71.30;;;;;;5014481;28;20119;-70
2020/12/01 04:18:12;;;;;;;8.30;5.22;;;4.20;71.20;;;;;;5015514;28;20025;-71
2020/12/01 04:20:38;;;;;;;8.30;5.47;;;4.20;71.10;;;;;;5015738;28;20351;-70
2020/12/01 04:23:04;;;;;;;8.43;5.53;;;4.20;71.10;;;;;;5015798;28;20030;-71
2020/12/01 04:25:30;;;;;;;8.40;5.32;;;4.20;71.20;;;;;;5015482;28;20123;-70
2020/12/01 04:27:56;;;;;;;8.40;5.30;;;4.20;71.10;;;;;;5015820;28;20443;-69
2020/12/01 04:30:23;;;;;;;9.05;5.13;;;4.20;71.20;;;;;;5014041;28;20120;-70
2020/12/01 04:32:50;;;;;;;8.88;5.43;;;4.20;71.00;;;;;;5025412;28;20021;-69
2020/12/01 04:35:17;;;;;;;11.00;6.40;;;4.20;70.80;;;;;;5032712;28;20045;-70
2020/12/01 04:37:43;;;;;;;10.70;5.97;;;4.20;70.80;;;;;;5023725;28;20458;-70
2020/12/01 04:40:14;;;;;;;9.63;5.40;;;4.20;70.80;;;;;;5015094;28;20104;-70
2020/12/01 04:42:50;;;;;;;9.40;6.05;;;4.20;70.80;;;;;;5014980;28;20374;-71
2020/12/01 04:45:16;;;;;;;8.85;5.80;;;4.20;70.70;;;;;;5031525;28;20104;-71
2020/12/01 04:48:05;;;;;;;10.43;5.80;;;4.10;70.70;;;;;;5033159;28;20100;-71
2020/12/01 04:50:43;;;;;;;11.07;6.60;;;4.10;70.90;;;;;;5029872;28;20030;-70
2020/12/01 04:53:25;;;;;;;11.05;5.88;;;4.20;71.20;;;;;;5033613;28;20028;-70
2020/12/01 04:56:09;;;;;;;9.10;5.72;;;4.10;71.10;;;;;;5023836;28;20048;-69
2020/12/01 04:59:11;;;;;;;11.30;6.05;;;4.10;71.20;;;;;;5023462;28;20067;-71
2020/12/01 05:02:15;;;;;;;8.48;5.50;;;4.10;71.20;;;;;;5033035;28;20361;-70
2020/12/01 05:04:56;;;;;;;10.90;5.40;;;4.20;71.30;;;;;;5021754;28;20025;-71
2020/12/01 05:08:01;;;;;;;9.65;5.78;;;4.10;71.10;;;;;;5034627;28;20047;-72
2020/12/01 05:10:24;;;;;;;11.38;6.40;;;4.10;71.20;;;;;;5032224;28;20112;-70
2020/12/01 05:13:12;;;;;;;9.45;5.78;;;4.10;71.30;;;;;;5019333;28;20175;-72
2020/12/01 05:15:39;;;;;;;10.23;5.85;;;4.10;71.30;;;;;;5019515;28;20088;-71
2020/12/01 05:18:17;;;;;;;10.88;5.53;;;4.10;71.20;;;;;;5034714;28;20422;-71
2020/12/01 05:21:00;;;;;;;8.82;5.25;;;4.00;71.20;;;;;;5034314;28;20365;-71
2020/12/01 05:23:46;;;;;;;9.10;5.55;;;4.00;71.40;;;;;;5028161;28;20045;-71
2020/12/01 05:26:14;;;;;;;8.45;5.43;;;4.00;71.30;;;;;;5025638;28;20022;-70
2020/12/01 05:28:50;;;;;;;10.00;5.80;;;4.00;71.50;;;;;;5014238;28;20454;-71
2020/12/01 05:31:21;;;;;;;10.20;5.53;;;4.00;71.70;;;;;;5013291;28;20033;-71
2020/12/01 05:34:02;;;;;;;8.52;5.35;;;4.00;71.70;;;;;;5014171;28;20101;-69
2020/12/01 05:36:31;;;;;;;9.25;5.90;;;4.00;71.60;;;;;;5014119;28;20458;-71
2020/12/01 05:39:03;;;;;;;8.68;5.70;;;4.00;71.60;;;;;;5014278;28;20021;-71
2020/12/01 05:41:32;;;;;;;9.30;5.82;;;4.00;71.80;;;;;;5014228;28;20116;-73
2020/12/01 05:44:02;;;;;;;9.25;5.70;;;4.00;71.80;;;;;;5029204;28;20022;-71
2020/12/01 05:46:33;;;;;;;8.15;5.30;;;4.10;71.90;;;;;;5014150;28;20428;-70
2020/12/01 05:49:17;;;;;;;8.02;5.18;;;4.10;71.90;;;;;;5013851;28;20038;-71
2020/12/01 05:51:46;;;;;;;10.27;5.53;;;4.10;71.70;;;;;;5012900;28;20030;-70
2020/12/01 05:54:31;;;;;;;10.25;5.90;;;4.10;71.60;;;;;;5014245;28;20033;-72
2020/12/01 05:56:56;;;;;;;18.33;8.17;;;4.00;71.70;;;;;;5013957;28;20022;-71
2020/12/01 05:59:23;;;;;;;14.63;6.57;;;4.10;71.90;;;;;;5013418;28;20374;-70
2020/12/01 06:01:53;;;;;;;10.25;6.75;;;4.10;71.80;;;;;;5013652;28;20038;-71
2020/12/01 06:04:25;;;;;;;11.75;6.97;;;4.10;71.90;;;;;;5013868;28;20029;-70
2020/12/01 06:07:04;;;;;;;10.25;6.53;;;4.10;71.90;;;;;;5028716;28;20068;-70
2020/12/01 06:10:00;;;;;;;13.35;6.88;;;4.10;71.80;;;;;;5013436;28;20080;-70
2020/12/01 06:12:32;;;;;;;9.80;5.90;;;4.10;71.80;;;;;;5013760;28;20339;-71
2020/12/01 06:15:00;;;;;;;9.02;5.57;;;4.10;71.80;;;;;;5013749;28;20022;-70
2020/12/01 06:17:54;;;;;;;11.10;5.32;;;4.10;71.80;;;;;;5018319;28;20032;-71
2020/12/01 06:20:25;;;;;;;10.23;5.43;;;4.10;71.80;;;;;;5033513;28;20053;-71
2020/12/01 06:23:09;;;;;;;10.68;6.38;;;4.10;72.00;;;;;;5033067;28;20476;-70
2020/12/01 06:26:01;;;;;;;11.20;5.68;;;4.10;72.10;;;;;;5032908;28;20495;-70
2020/12/01 06:29:05;;;;;;;9.98;6.28;;;4.20;72.00;;;;;;5033700;28;20021;-70
2020/12/01 06:31:39;;;;;;;9.75;5.25;;;4.20;71.90;;;;;;5032928;28;20033;-70
2020/12/01 06:34:28;;;;;;;8.25;5.38;;;4.20;71.90;;;;;;5032168;28;20018;-71
2020/12/01 06:37:22;;;;;;;6.63;4.95;;;4.20;71.90;;;;;;5031940;28;20021;-71
2020/12/01 06:40:21;;;;;;;7.97;5.43;;;4.30;71.90;;;;;;5029505;28;20030;-70
2020/12/01 06:43:19;;;;;;;8.85;5.28;;;4.30;71.90;;;;;;5030266;28;20044;-71
2020/12/01 06:45:53;;;;;;;13.45;7.57;;;4.40;71.90;;;;;;5031292;28;20028;-71
2020/12/01 06:48:49;;;;;;;10.38;5.88;;;4.40;71.90;;;;;;5028944;28;20554;-70
2020/12/01 06:51:16;;;;;;;16.50;7.45;;;4.40;71.90;;;;;;5023799;28;20042;-71
2020/12/01 06:53:42;;;;;;;9.38;5.45;;;4.50;71.70;;;;;;5032521;28;20033;-71
2020/12/01 06:56:11;;;;;;;7.95;5.18;;;4.50;71.70;;;;;;5032895;28;20029;-70
2020/12/01 06:58:38;;;;;;;11.30;5.57;;;4.50;71.60;;;;;;5032934;28;20024;-71
2020/12/01 07:01:15;;;;;;;9.68;6.22;;;4.50;71.60;;;;;;5033154;28;20026;-69
2020/12/01 07:03:42;;;;;;;10.15;5.68;;;4.50;71.40;;;;;;5032343;28;20030;-71
2020/12/01 07:06:23;;;;;;;10.15;6.53;;;4.50;71.40;;;;;;5033343;28;20029;-70
2020/12/01 07:08:49;;;;;;;7.38;4.97;;;4.60;71.60;;;;;;5031562;28;20084;-71
2020/12/01 07:11:48;;;;;;;7.80;5.20;;;4.60;71.60;;;;;;5032551;28;20132;-70
2020/12/01 07:14:22;;;;;;;9.27;5.85;;;4.60;71.60;;;;;;5001242;28;20087;-70
2020/12/01 07:16:49;;;;;;;10.57;5.93;;;4.70;71.50;;;;;;5035435;28;20104;-70
2020/12/01 07:19:52;;;;;;;8.52;6.22;;;4.70;71.30;;;;;;5036654;28;20265;-70
2020/12/01 07:22:26;;;;;;;10.90;6.60;;;4.70;71.40;;;;;;5035361;28;20025;-71
2020/12/01 07:25:01;;;;;;;9.80;6.15;;;4.70;71.20;;;;;;5035499;28;20021;-71
2020/12/01 07:27:45;;;;;;;14.30;7.32;;;4.70;71.30;;;;;;5031895;28;20060;-71
2020/12/01 07:30:21;;;;;;;11.20;6.60;;;4.70;71.50;;;;;;5034885;28;20045;-72
2020/12/01 07:32:50;;;;;;;11.30;6.38;;;4.80;71.60;;;;;;5034737;28;20047;-71
2020/12/01 07:35:55;;;;;;;10.77;7.13;;;4.80;71.50;;;;;;5036292;28;20411;-70
2020/12/01 07:38:32;;;;;;;12.45;7.00;;;4.90;71.40;;;;;;5036340;28;20029;-70
2020/12/01 07:41:30;;;;;;;12.25;7.10;;;4.90;71.10;;;;;;5036247;28;20076;-70
2020/12/01 07:44:11;;;;;;;12.10;7.78;;;5.00;71.10;;;;;;5013416;28;20046;-70
2020/12/01 07:49:21;;;;;;;14.55;8.00;;;5.00;71.10;;;;;;5035977;28;20025;-70
2020/12/01 07:51:48;;;;;;;14.93;7.43;;;5.00;71.20;;;;;;5035973;28;20029;-71
2020/12/01 07:54:21;;;;;;;12.73;7.28;;;5.00;71.30;;;;;;5036078;28;20040;-70
2020/12/01 07:56:48;;;;;;;11.88;7.28;;;5.00;71.20;;;;;;5035529;28;20025;-71
2020/12/01 07:59:15;;;;;;;12.80;7.03;;;5.10;71.10;;;;;;5035952;28;20032;-70
2020/12/01 08:01:42;;;;;;;15.30;7.82;;;5.10;71.10;;;;;;5035948;28;20400;-70
2020/12/01 08:04:17;;;;;;;14.45;8.40;;;5.10;71.00;;;;;;5035973;28;20097;-71
2020/12/01 08:06:44;;;;;;;14.18;8.25;;;5.10;70.70;;;;;;5035853;28;20087;-70
2020/12/01 08:09:21;;;;;;;16.00;8.73;;;5.10;70.60;;;;;;5035568;28;20048;-71
2020/12/01 08:11:48;;;;;;;19.40;9.48;;;5.10;70.70;;;;;;5035765;28;20068;-70
2020/12/01 08:14:15;;;;;;;15.68;8.07;;;5.10;70.70;;;;;;5034528;28;20025;-70
2020/12/01 08:16:42;;;;;;;16.38;8.70;;;5.20;70.80;;;;;;5031857;28;20046;-71
2020/12/01 08:19:11;;;;;;;14.40;8.63;;;5.20;70.80;;;;;;5035682;28;20400;-72
2020/12/01 08:21:41;;;;;;;17.23;8.55;;;5.20;70.60;;;;;;5035585;28;20060;-71
2020/12/01 08:24:13;;;;;;;15.88;8.27;;;5.20;70.60;;;;;;5035024;28;20021;-71
2020/12/01 08:26:40;;;;;;;16.85;8.77;;;5.20;70.50;;;;;;5035218;28;20014;-72
2020/12/01 08:29:16;;;;;;;16.23;8.35;;;5.20;70.40;;;;;;5035247;28;20487;-70
2020/12/01 08:32:03;;;;;;;15.98;8.88;;;5.20;70.60;;;;;;5035269;28;20408;-70
2020/12/01 08:34:49;;;;;;;19.77;10.70;;;5.30;70.80;;;;;;5035124;28;20028;-71
2020/12/01 08:37:56;;;;;;;17.60;8.75;;;5.30;70.70;;;;;;5035226;28;20028;-71
2020/12/01 08:40:32;;;;;;;15.98;9.15;;;5.30;70.50;;;;;;5034831;28;20057;-70
2020/12/01 08:43:11;;;;;;;16.60;9.50;;;5.40;70.70;;;;;;5034906;28;20021;-70
2020/12/01 08:45:52;;;;;;;19.65;10.57;;;5.40;70.60;;;;;;5035033;28;20342;-70
2020/12/01 08:48:29;;;;;;;21.33;10.98;;;5.50;70.80;;;;;;5034956;28;20446;-71
2020/12/01 08:51:21;;;;;;;17.10;9.82;;;5.50;71.30;;;;;;5034858;28;20030;-71
2020/12/01 08:54:13;;;;;;;18.02;10.15;;;5.60;70.50;;;;;;5035059;28;20030;-70
2020/12/01 08:56:48;;;;;;;16.92;9.38;;;5.60;70.40;;;;;;5034769;28;20488;-70
2020/12/01 08:59:17;;;;;;;;;;;5.70;70.30;;;;;;5034877;28;20071;-70
2020/12/01 09:01:43;;;;;;;18.27;9.82;;;5.70;70.70;;;;;;5035018;28;19909;-71
2020/12/01 09:04:24;;;;;;;20.65;9.93;;;5.80;70.70;;;;;;5034523;28;20496;-71
2020/12/01 09:06:52;;;;;;;20.58;10.77;;;5.90;70.40;;;;;;5033402;28;20372;-70
2020/12/01 09:09:25;;;;;;;67.32;30.33;;;5.90;70.20;;;;;;5034435;28;20026;-72
2020/12/01 09:17:30;;;;;;;19.52;10.00;;;5.90;69.70;;;;;;5032349;28;20029;-72
2020/12/01 09:20:50;;;;;;;23.90;9.83;;;5.90;69.90;;;;;;5031631;28;20037;-72
2020/12/01 09:23:16;;;;;;;18.60;9.98;;;6.00;69.80;;;;;;5033656;28;20037;-71
2020/12/01 09:25:44;;;;;;;17.50;10.38;;;6.00;69.70;;;;;;5032450;28;20021;-72
2020/12/01 09:28:16;;;;;;;17.10;9.80;;;6.00;69.80;;;;;;5030555;28;20025;-70
2020/12/01 09:30:43;;;;;;;16.05;9.70;;;6.00;69.80;;;;;;5033018;28;20069;-71
2020/12/01 09:33:12;;;;;;;20.55;10.50;;;6.00;69.70;;;;;;5033489;28;20515;-71
2020/12/01 09:35:38;;;;;;;17.75;10.05;;;6.00;69.70;;;;;;5031672;28;20056;-71
2020/12/01 09:38:05;;;;;;;19.98;10.55;;;6.00;70.10;;;;;;5032864;28;20036;-71
2020/12/01 09:40:33;;;;;;;20.65;10.43;;;6.00;69.50;;;;;;5034128;28;20115;-71
2020/12/01 09:43:07;;;;;;;17.85;10.40;;;6.00;69.40;;;;;;5032695;28;20017;-71
2020/12/01 09:45:35;;;;;;;18.67;9.68;;;6.10;69.30;;;;;;5034018;28;20040;-72
2020/12/01 09:50:38;;;;;;;22.40;10.90;;;6.10;69.50;;;;;;5033869;28;20037;-71
2020/12/01 09:59:23;;;;;;;20.17;10.98;;;6.10;69.30;;;;;;5051157;28;20032;-71
2020/12/01 10:18:05;;;;;;;25.52;12.77;;;6.00;69.50;;;;;;5032334;28;20120;-70
2020/12/01 10:36:23;;;;;;;26.55;12.57;;;6.30;69.50;;;;;;5033034;28;20477;-73
2020/12/01 10:38:49;;;;;;;28.08;13.45;;;6.30;69.30;;;;;;5032916;28;20022;-72
2020/12/01 10:41:15;;;;;;;26.65;13.38;;;6.30;69.30;;;;;;5032947;28;20032;-72
2020/12/01 10:43:40;;;;;;;24.48;11.73;;;6.30;69.40;;;;;;5033381;28;20022;-71
2020/12/01 10:46:09;;;;;;;22.27;12.88;;;6.30;69.20;;;;;;5033396;28;20025;-74
2020/12/01 10:48:35;;;;;;;28.05;14.10;;;6.30;69.20;;;;;;5037485;28;20361;-74
2020/12/01 10:51:01;;;;;;;26.48;14.00;;;6.30;69.40;;;;;;5036968;28;20029;-73
2020/12/01 10:53:26;;;;;;;30.13;14.88;;;6.40;69.50;;;;;;5037256;28;20408;-73
2020/12/01 10:55:52;;;;;;;28.92;14.27;;;6.40;69.50;;;;;;5035906;28;20032;-73
2020/12/01 10:58:18;;;;;;;25.95;13.23;;;6.40;69.40;;;;;;5037325;28;20021;-74
2020/12/01 11:00:44;;;;;;;28.25;14.23;;;6.50;69.30;;;;;;5037120;28;20029;-73
2020/12/01 11:03:09;;;;;;;32.25;14.80;;;6.50;69.30;;;;;;5036970;28;20110;-72
2020/12/01 11:05:35;;;;;;;30.80;14.50;;;6.50;69.40;;;;;;5037124;28;20346;-73
2020/12/01 11:08:01;;;;;;;27.77;14.27;;;6.60;69.20;;;;;;5036984;28;20057;-74
2020/12/01 11:10:27;;;;;;;24.33;13.00;;;6.60;69.20;;;;;;5036948;28;20064;-73
2020/12/01 11:12:53;;;;;;;29.67;12.73;;;6.60;69.10;;;;;;5036900;28;20032;-72
2020/12/01 11:15:20;;;;;;;28.60;12.73;;;6.60;69.90;;;;;;5035660;28;20112;-74
2020/12/01 11:17:46;;;;;;;27.08;11.68;;;6.70;69.30;;;;;;5036971;28;20424;-73
2020/12/01 11:20:14;;;;;;;23.88;12.40;;;6.70;69.50;;;;;;5036814;28;20025;-72
2020/12/01 11:22:40;;;;;;;22.38;10.73;;;6.80;69.40;;;;;;5036661;28;20025;-74
2020/12/01 11:25:07;;;;;;;21.90;11.63;;;6.80;69.20;;;;;;5036348;28;20484;-72
2020/12/01 11:27:32;;;;;;;25.30;11.43;;;6.80;69.00;;;;;;5036789;28;20017;-70
2020/12/01 11:29:58;;;;;;;24.08;11.88;;;6.80;68.60;;;;;;5035217;28;20339;-70
2020/12/01 11:32:24;;;;;;;25.58;12.20;;;6.70;68.60;;;;;;5036323;28;20029;-71
2020/12/01 11:34:50;;;;;;;23.60;11.80;;;6.70;68.70;;;;;;5031577;28;20017;-71
2020/12/01 11:37:15;;;;;;;27.48;13.05;;;6.60;68.90;;;;;;5020853;28;20029;-72
2020/12/01 11:39:41;;;;;;;26.52;12.80;;;6.60;69.00;;;;;;5017063;28;20030;-72
2020/12/01 11:42:07;;;;;;;26.98;13.45;;;6.60;68.90;;;;;;5036371;28;20026;-71
2020/12/01 11:44:33;;;;;;;32.83;14.95;;;6.60;69.00;;;;;;5036109;28;20022;-70
2020/12/01 11:46:59;;;;;;;31.48;14.10;;;6.60;69.20;;;;;;5035874;28;20090;-72
2020/12/01 11:49:24;;;;;;;31.42;13.75;;;6.60;69.20;;;;;;5036161;28;20017;-71
2020/12/01 11:51:50;;;;;;;33.85;15.18;;;6.60;69.40;;;;;;5036124;28;20032;-71
2020/12/01 11:54:18;;;;;;;31.83;13.45;;;6.60;69.30;;;;;;5036013;28;20075;-71
2020/12/01 11:56:44;;;;;;;27.33;13.57;;;6.60;69.30;;;;;;5036032;28;20395;-71
2020/12/01 11:59:10;;;;;;;33.03;14.00;;;6.60;69.40;;;;;;5035035;28;20105;-71
2020/12/01 12:01:36;;;;;;;28.83;13.27;;;6.50;69.40;;;;;;5035919;28;20021;-70
2020/12/01 12:04:03;;;;;;;35.08;15.52;;;6.50;69.20;;;;;;5035647;28;20029;-70
2020/12/01 12:06:29;;;;;;;34.15;14.68;;;6.40;69.10;;;;;;5036240;28;20025;-70
2020/12/01 12:08:55;;;;;;;34.10;16.75;;;6.40;69.40;;;;;;5035772;28;20029;-71
2020/12/01 12:11:21;;;;;;;35.13;14.63;;;6.40;69.60;;;;;;5035792;28;20029;-70
2020/12/01 12:13:47;;;;;;;36.90;16.50;;;6.40;69.70;;;;;;5034385;28;20079;-72
2020/12/01 12:16:16;;;;;;;31.80;14.20;;;6.40;69.90;;;;;;5035376;28;20021;-71
2020/12/01 12:18:41;;;;;;;33.38;16.30;;;6.40;69.80;;;;;;5034714;28;20104;-72
2020/12/01 12:21:08;;;;;;;38.83;16.30;;;6.40;69.90;;;;;;5035535;28;20136;-72
2020/12/01 12:23:33;;;;;;;37.90;16.48;;;6.40;69.80;;;;;;5034910;28;20025;-70
2020/12/01 12:25:59;;;;;;;42.88;17.35;;;6.40;70.10;;;;;;5033694;28;20120;-72
2020/12/01 12:28:25;;;;;;;36.05;17.17;;;6.40;70.20;;;;;;5034966;28;20045;-71
2020/12/01 12:30:53;;;;;;;33.97;14.50;;;6.40;70.20;;;;;;5034515;28;20037;-72
2020/12/01 12:33:20;;;;;;;34.88;16.13;;;6.40;70.30;;;;;;5035387;28;20020;-71
2020/12/01 12:35:46;;;;;;;35.03;16.02;;;6.40;70.30;;;;;;5032765;28;20041;-72
2020/12/01 12:38:12;;;;;;;40.22;17.15;;;6.40;70.10;;;;;;5035027;28;20056;-72
2020/12/01 12:40:37;;;;;;;33.55;15.55;;;6.40;70.20;;;;;;5035064;28;20519;-73
2020/12/01 12:43:04;;;;;;;35.22;15.52;;;6.40;70.20;;;;;;5034523;28;20018;-73
2020/12/01 12:45:33;;;;;;;32.47;16.02;;;6.40;70.30;;;;;;5035425;28;20412;-71
2020/12/01 12:47:58;;;;;;;32.55;15.70;;;6.40;70.40;;;;;;5034961;28;20175;-71
2020/12/01 12:50:24;;;;;;;35.90;15.50;;;6.40;70.60;;;;;;5034304;28;20112;-70
2020/12/01 12:52:50;;;;;;;35.40;15.40;;;6.40;70.60;;;;;;5033019;28;20044;-73
2020/12/01 12:55:16;;;;;;;37.60;15.68;;;6.30;70.60;;;;;;5033594;28;20025;-72
2020/12/01 12:57:41;;;;;;;35.10;15.80;;;6.40;70.60;;;;;;5034026;28;20021;-71
2020/12/01 13:00:07;;;;;;;36.08;14.68;;;6.30;70.70;;;;;;5033985;28;20095;-70
2020/12/01 13:02:33;;;;;;;35.97;14.93;;;6.30;70.80;;;;;;5021062;28;20425;-70
2020/12/01 13:04:59;;;;;;;38.00;16.60;;;6.30;70.80;;;;;;5029780;28;20034;-71
2020/12/01 13:07:25;;;;;;;36.83;17.63;;;6.30;70.70;;;;;;5016086;28;20369;-71
2020/12/01 13:09:50;;;;;;;39.80;17.55;;;6.30;71.00;;;;;;5028545;28;20044;-71
2020/12/01 13:12:16;;;;;;;36.33;17.90;;;6.30;71.20;;;;;;5016150;28;20064;-73
2020/12/01 13:14:42;;;;;;;43.10;19.15;;;6.30;71.10;;;;;;5013971;28;20026;-72
2020/12/01 13:17:08;;;;;;;57.63;25.25;;;6.20;71.20;;;;;;5023084;28;20045;-71
2020/12/01 13:19:33;;;;;;;59.33;26.77;;;6.20;71.40;;;;;;5044913;28;20029;-71
2020/12/01 13:21:59;;;;;;;38.15;18.58;;;6.10;71.40;;;;;;5043711;28;20032;-71
2020/12/01 13:24:25;;;;;;;38.83;18.05;;;6.20;71.60;;;;;;5049168;28;20052;-71
2020/12/01 13:26:52;;;;;;;39.90;19.92;;;6.20;71.70;;;;;;5037721;28;20029;-72
2020/12/01 13:29:17;;;;;;;38.58;18.05;;;6.20;71.70;;;;;;5047779;28;20074;-71
2020/12/01 13:31:47;;;;;;;42.20;19.42;;;6.20;71.70;;;;;;5037090;28;20291;-71
2020/12/01 13:34:13;;;;;;;45.97;20.95;;;6.20;71.80;;;;;;5033711;28;20057;-71
2020/12/01 13:36:39;;;;;;;43.55;19.02;;;6.20;71.80;;;;;;5034308;28;20457;-70
2020/12/01 13:39:05;;;;;;;41.92;20.70;;;6.20;71.60;;;;;;5043169;28;20071;-71
2020/12/01 13:41:30;;;;;;;42.22;21.65;;;6.20;71.50;;;;;;5041598;28;20358;-70
2020/12/01 13:43:56;;;;;;;37.70;19.00;;;6.20;71.50;;;;;;5034001;28;20021;-71
2020/12/01 13:46:22;;;;;;;40.33;18.50;;;6.20;71.30;;;;;;5034253;28;20354;-72
2020/12/01 13:48:48;;;;;;;40.00;20.20;;;6.20;71.50;;;;;;5033953;28;20068;-71
2020/12/01 13:51:13;;;;;;;41.63;20.20;;;6.20;71.60;;;;;;5033280;28;20033;-70
2020/12/01 13:53:39;;;;;;;37.85;17.85;;;6.20;71.60;;;;;;5032434;28;20377;-71